createdAt,value
2023-04-30T00:00:28.214Z,11.60
2023-04-30T00:02:02.367Z,11.60
2023-04-30T00:03:35.167Z,11.60
2023-04-30T00:05:08.312Z,11.60
2023-04-30T00:06:41.557Z,11.60
2023-04-30T00:08:14.400Z,11.60
2023-04-30T00:09:47.157Z,11.50
2023-04-30T00:11:19.915Z,11.50
2023-04-30T00:12:52.861Z,11.50
2023-04-30T00:14:24.653Z,11.60
2023-04-30T00:15:57.440Z,11.60
2023-04-30T00:17:31.749Z,11.60
2023-04-30T00:19:04.501Z,11.60
2023-04-30T00:20:36.348Z,11.60
2023-04-30T00:22:09.158Z,11.50
2023-04-30T00:23:41.975Z,11.50
2023-04-30T00:25:17.605Z,11.50
2023-04-30T00:26:50.345Z,11.50
2023-04-30T00:28:23.109Z,11.50
2023-04-30T00:29:56.245Z,11.50
2023-04-30T00:31:29.350Z,11.50
2023-04-30T00:33:03.540Z,11.50
2023-04-30T00:34:35.491Z,11.50
2023-04-30T00:36:08.270Z,11.50
2023-04-30T00:37:41.115Z,11.50
2023-04-30T00:39:13.906Z,11.50
2023-04-30T00:40:47.242Z,11.50
2023-04-30T00:42:18.968Z,11.50
2023-04-30T00:43:51.744Z,11.50
2023-04-30T00:45:24.491Z,11.50
2023-04-30T00:46:56.354Z,11.40
2023-04-30T00:48:30.549Z,11.40
2023-04-30T00:50:03.350Z,11.40
2023-04-30T00:51:36.544Z,11.40
2023-04-30T00:53:09.429Z,11.50
2023-04-30T00:54:42.300Z,11.40
2023-04-30T00:56:16.569Z,11.40
2023-04-30T00:57:49.697Z,11.30
2023-04-30T00:59:22.563Z,11.40
2023-04-30T01:00:55.410Z,11.40
2023-04-30T01:02:28.264Z,11.30
2023-04-30T01:04:02.752Z,11.30
2023-04-30T01:05:35.647Z,11.30
2023-04-30T01:07:08.369Z,11.30
2023-04-30T01:08:41.275Z,11.20
2023-04-30T01:10:15.019Z,11.20
2023-04-30T01:11:51.467Z,11.20
2023-04-30T01:13:29.869Z,11.20
2023-04-30T01:15:05.646Z,11.20
2023-04-30T01:16:42.105Z,11.20
2023-04-30T01:18:18.152Z,11.20
2023-04-30T01:19:52.574Z,11.20
2023-04-30T01:21:25.570Z,11.30
2023-04-30T01:23:13.737Z,11.20
2023-04-30T01:25:06.640Z,11.20
2023-04-30T01:26:49.825Z,11.20
2023-04-30T01:28:24.815Z,11.20
2023-04-30T01:29:57.993Z,11.20
2023-04-30T01:31:31.322Z,11.10
2023-04-30T01:33:04.324Z,11.10
2023-04-30T01:34:37.195Z,11.10
2023-04-30T01:36:13.734Z,11.10
2023-04-30T01:37:52.902Z,11.20
2023-04-30T01:39:32.651Z,11.20
2023-04-30T01:41:10.458Z,11.10
2023-04-30T01:42:46.799Z,11.20
2023-04-30T01:44:30.733Z,11.20
2023-04-30T01:46:06.361Z,11.10
2023-04-30T01:47:40.944Z,11.10
2023-04-30T01:49:17.280Z,11.10
2023-04-30T01:50:51.972Z,11.10
2023-04-30T01:52:31.764Z,11.10
2023-04-30T01:54:08.231Z,11.10
2023-04-30T01:55:43.540Z,11.10
2023-04-30T01:57:18.256Z,11.10
2023-04-30T01:58:51.443Z,11.10
2023-04-30T02:00:24.839Z,11.10
2023-04-30T02:01:57.724Z,11.10
2023-04-30T02:03:29.635Z,11.00
2023-04-30T02:05:02.615Z,10.90
2023-04-30T02:06:35.479Z,11.00
2023-04-30T02:08:08.479Z,11.00
2023-04-30T02:09:40.482Z,11.00
2023-04-30T02:11:13.234Z,11.00
2023-04-30T02:12:46.090Z,11.10
2023-04-30T02:14:18.921Z,11.10
2023-04-30T02:15:53.101Z,11.00
2023-04-30T02:17:26.042Z,11.00
2023-04-30T02:18:58.912Z,11.00
2023-04-30T02:20:31.704Z,11.10
2023-04-30T02:22:03.485Z,11.10
2023-04-30T02:23:36.430Z,11.00
2023-04-30T02:25:08.923Z,11.00
2023-04-30T02:26:41.675Z,11.00
2023-04-30T02:28:14.374Z,11.00
2023-04-30T02:29:46.521Z,11.00
2023-04-30T02:31:20.772Z,11.10
2023-04-30T02:32:53.525Z,11.00
2023-04-30T02:34:26.267Z,11.00
2023-04-30T02:35:59.071Z,10.90
2023-04-30T02:37:31.822Z,11.00
2023-04-30T02:39:04.715Z,11.00
2023-04-30T02:40:37.455Z,11.00
2023-04-30T02:42:10.340Z,11.00
2023-04-30T02:43:43.209Z,11.00
2023-04-30T02:45:16.342Z,11.00
2023-04-30T02:46:49.570Z,10.90
2023-04-30T02:48:22.406Z,10.90
2023-04-30T02:49:55.268Z,10.90
2023-04-30T02:51:28.312Z,10.90
2023-04-30T02:53:01.112Z,10.90
2023-04-30T02:54:32.826Z,10.90
2023-04-30T02:56:05.964Z,10.90
2023-04-30T02:57:37.749Z,10.90
2023-04-30T02:59:10.745Z,10.90
2023-04-30T03:00:43.507Z,10.80
2023-04-30T03:02:21.366Z,10.90
2023-04-30T03:03:54.335Z,10.80
2023-04-30T03:05:27.152Z,10.80
2023-04-30T03:07:00.543Z,10.80
2023-04-30T03:08:33.338Z,10.80
2023-04-30T03:10:06.719Z,10.80
2023-04-30T03:11:39.430Z,10.80
2023-04-30T03:13:12.154Z,10.80
2023-04-30T03:14:44.954Z,10.80
2023-04-30T03:16:17.969Z,10.80
2023-04-30T03:17:52.236Z,10.80
2023-04-30T03:19:25.511Z,10.70
2023-04-30T03:20:58.398Z,10.70
2023-04-30T03:22:30.253Z,10.70
2023-04-30T03:24:02.963Z,10.80
2023-04-30T03:25:35.769Z,10.80
2023-04-30T03:27:08.474Z,10.70
2023-04-30T03:28:41.246Z,10.80
2023-04-30T03:30:14.023Z,10.80
2023-04-30T03:31:46.788Z,10.80
2023-04-30T03:33:21.075Z,10.80
2023-04-30T03:34:53.836Z,10.70
2023-04-30T03:36:27.375Z,10.80
2023-04-30T03:38:00.372Z,10.80
2023-04-30T03:39:32.163Z,10.80
2023-04-30T03:41:04.960Z,10.70
2023-04-30T03:42:37.754Z,10.70
2023-04-30T03:44:15.648Z,10.70
2023-04-30T03:45:48.695Z,10.70
2023-04-30T03:47:21.545Z,10.70
2023-04-30T03:48:55.645Z,10.70
2023-04-30T03:50:27.408Z,10.70
2023-04-30T03:52:01.087Z,10.60
2023-04-30T03:53:33.857Z,10.70
2023-04-30T03:55:07.347Z,10.70
2023-04-30T03:56:41.090Z,10.70
2023-04-30T03:58:13.843Z,10.70
2023-04-30T03:59:46.680Z,10.60
2023-04-30T04:01:19.414Z,10.70
2023-04-30T04:02:51.180Z,10.60
2023-04-30T04:04:25.534Z,10.60
2023-04-30T04:05:58.368Z,10.60
2023-04-30T04:07:31.264Z,10.70
2023-04-30T04:09:05.530Z,10.70
2023-04-30T04:10:38.403Z,10.60
2023-04-30T04:12:11.310Z,10.70
2023-04-30T04:13:44.049Z,10.70
2023-04-30T04:15:16.762Z,10.60
2023-04-30T04:16:49.502Z,10.70
2023-04-30T04:18:22.243Z,10.60
2023-04-30T04:19:57.188Z,10.70
2023-04-30T04:21:29.939Z,10.70
2023-04-30T04:23:02.638Z,10.70
2023-04-30T04:24:35.333Z,10.70
2023-04-30T04:26:08.147Z,10.70
2023-04-30T04:27:41.068Z,10.70
2023-04-30T04:29:13.804Z,10.70
2023-04-30T04:30:46.836Z,10.90
2023-04-30T04:32:19.590Z,10.80
2023-04-30T04:33:58.103Z,10.80
2023-04-30T04:35:32.199Z,10.80
2023-04-30T04:37:04.907Z,10.80
2023-04-30T04:38:37.676Z,10.90
2023-04-30T04:40:10.674Z,10.90
2023-04-30T04:41:43.404Z,10.90
2023-04-30T04:43:17.029Z,10.90
2023-04-30T04:44:49.741Z,11.00
2023-04-30T04:46:22.568Z,11.00
2023-04-30T04:47:55.530Z,11.00
2023-04-30T04:49:28.306Z,11.10
2023-04-30T04:51:02.407Z,11.10
2023-04-30T04:52:35.136Z,11.10
2023-04-30T04:54:07.913Z,11.10
2023-04-30T04:55:40.977Z,11.10
2023-04-30T04:57:13.752Z,11.20
2023-04-30T04:58:46.620Z,11.10
2023-04-30T05:00:19.050Z,11.20
2023-04-30T05:01:52.020Z,11.20
2023-04-30T05:03:24.892Z,11.30
2023-04-30T05:04:57.691Z,11.30
2023-04-30T05:06:32.170Z,11.30
2023-04-30T05:08:05.071Z,11.30
2023-04-30T05:09:38.026Z,11.30
2023-04-30T05:11:10.804Z,11.40
2023-04-30T05:12:43.538Z,11.40
2023-04-30T05:14:16.423Z,11.40
2023-04-30T05:15:50.698Z,11.50
2023-04-30T05:17:23.477Z,11.40
2023-04-30T05:18:56.221Z,11.40
2023-04-30T05:20:28.992Z,11.50
2023-04-30T05:22:03.057Z,11.60
2023-04-30T05:23:35.767Z,11.60
2023-04-30T05:25:08.897Z,11.70
2023-04-30T05:26:41.754Z,11.80
2023-04-30T05:28:14.529Z,11.80
2023-04-30T05:29:47.318Z,11.90
2023-04-30T05:31:21.091Z,11.90
2023-04-30T05:32:54.113Z,11.90
2023-04-30T05:34:27.550Z,12.00
2023-04-30T05:36:00.901Z,12.00
2023-04-30T05:37:35.001Z,12.10
2023-04-30T05:39:07.790Z,12.20
2023-04-30T05:40:41.683Z,12.30
2023-04-30T05:42:14.375Z,12.40
2023-04-30T05:43:47.849Z,12.50
2023-04-30T05:45:20.746Z,12.60
2023-04-30T05:46:53.458Z,12.60
2023-04-30T05:48:26.483Z,12.70
2023-04-30T05:49:59.198Z,12.90
2023-04-30T05:51:32.583Z,12.90
2023-04-30T05:53:06.946Z,12.90
2023-04-30T05:54:39.701Z,12.90
2023-04-30T05:56:12.508Z,12.90
2023-04-30T05:57:45.249Z,12.90
2023-04-30T05:59:16.991Z,13.00
2023-04-30T06:00:50.173Z,13.10
2023-04-30T06:02:23.048Z,13.20
2023-04-30T06:03:56.037Z,13.10
2023-04-30T06:05:28.744Z,13.10
2023-04-30T06:07:01.524Z,13.10
2023-04-30T06:08:35.811Z,13.00
2023-04-30T06:10:09.381Z,13.00
2023-04-30T06:11:42.736Z,13.00
2023-04-30T06:13:16.532Z,13.00
2023-04-30T06:14:49.364Z,12.90
2023-04-30T06:16:22.164Z,12.90
2023-04-30T06:17:55.139Z,12.90
2023-04-30T06:19:27.955Z,12.90
2023-04-30T06:21:00.798Z,12.90
2023-04-30T06:22:32.768Z,12.90
2023-04-30T06:24:07.449Z,12.90
2023-04-30T06:25:40.308Z,12.80
2023-04-30T06:27:12.989Z,12.70
2023-04-30T06:28:46.224Z,12.60
2023-04-30T06:30:19.082Z,12.40
2023-04-30T06:31:52.272Z,12.40
2023-04-30T06:33:25.090Z,12.40
2023-04-30T06:34:57.821Z,12.30
2023-04-30T06:36:31.391Z,12.20
2023-04-30T06:38:04.127Z,12.10
2023-04-30T06:39:38.254Z,12.00
2023-04-30T06:41:11.059Z,12.00
2023-04-30T06:42:42.805Z,12.00
2023-04-30T06:44:16.516Z,12.00
2023-04-30T06:45:49.328Z,12.00
2023-04-30T06:47:22.181Z,12.10
2023-04-30T06:48:55.037Z,12.10
2023-04-30T06:50:28.023Z,12.10
2023-04-30T06:52:01.552Z,12.10
2023-04-30T06:53:34.307Z,12.10
2023-04-30T06:55:09.363Z,12.10
2023-04-30T06:56:43.919Z,12.10
2023-04-30T06:58:16.651Z,12.20
2023-04-30T06:59:49.570Z,12.20
2023-04-30T07:01:22.517Z,12.20
2023-04-30T07:02:57.186Z,12.30
2023-04-30T07:04:31.060Z,12.30
2023-04-30T07:06:03.935Z,12.40
2023-04-30T07:07:36.708Z,12.40
2023-04-30T07:09:09.629Z,12.40
2023-04-30T07:10:43.722Z,12.40
2023-04-30T07:12:15.582Z,12.40
2023-04-30T07:13:48.322Z,12.50
2023-04-30T07:15:21.110Z,12.50
2023-04-30T07:16:54.066Z,12.50
2023-04-30T07:18:26.827Z,12.60
2023-04-30T07:19:59.586Z,12.60
2023-04-30T07:21:32.745Z,12.60
2023-04-30T07:23:05.522Z,12.70
2023-04-30T07:24:38.243Z,12.70
2023-04-30T07:26:12.326Z,12.80
2023-04-30T07:27:45.356Z,12.80
2023-04-30T07:29:18.300Z,12.80
2023-04-30T07:30:51.167Z,12.80
2023-04-30T07:32:27.273Z,12.90
2023-04-30T07:34:00.099Z,12.90
2023-04-30T07:35:32.848Z,13.00
2023-04-30T07:37:05.579Z,13.00
2023-04-30T07:38:38.272Z,13.00
2023-04-30T07:40:15.336Z,13.10
2023-04-30T07:41:53.458Z,13.10
2023-04-30T07:43:26.189Z,13.20
2023-04-30T07:44:59.225Z,13.20
2023-04-30T07:46:32.090Z,13.20
2023-04-30T07:48:05.216Z,13.30
2023-04-30T07:49:38.042Z,13.30
2023-04-30T07:51:10.829Z,13.40
2023-04-30T07:52:43.540Z,13.40
2023-04-30T07:54:16.312Z,13.40
2023-04-30T07:55:49.042Z,13.40
2023-04-30T07:57:23.079Z,13.40
2023-04-30T07:58:55.836Z,13.40
2023-04-30T08:00:29.431Z,13.40
2023-04-30T08:02:02.624Z,13.50
2023-04-30T08:03:36.564Z,13.60
2023-04-30T08:05:09.851Z,13.70
2023-04-30T08:06:42.830Z,13.60
2023-04-30T08:08:15.676Z,13.70
2023-04-30T08:09:48.404Z,13.80
2023-04-30T08:11:21.359Z,13.80
2023-04-30T08:12:55.636Z,13.90
2023-04-30T08:14:28.370Z,13.90
2023-04-30T08:16:01.190Z,14.00
2023-04-30T08:17:34.354Z,14.10
2023-04-30T08:19:07.178Z,14.30
2023-04-30T08:20:40.265Z,14.30
2023-04-30T08:22:13.002Z,14.40
2023-04-30T08:23:45.890Z,14.40
2023-04-30T08:25:18.793Z,14.50
2023-04-30T08:26:52.971Z,14.60
2023-04-30T08:28:28.316Z,14.60
2023-04-30T08:30:01.067Z,14.70
2023-04-30T08:31:33.819Z,14.80
2023-04-30T08:33:06.693Z,14.80
2023-04-30T08:34:40.668Z,14.80
2023-04-30T08:36:13.421Z,14.80
2023-04-30T08:37:46.153Z,14.90
2023-04-30T08:39:18.906Z,14.80
2023-04-30T08:40:57.658Z,14.80
2023-04-30T08:42:31.766Z,14.70
2023-04-30T08:44:08.339Z,14.70
2023-04-30T08:45:41.833Z,14.70
2023-04-30T08:47:15.655Z,14.70
2023-04-30T08:48:49.028Z,14.70
2023-04-30T08:50:22.117Z,14.60
2023-04-30T08:51:54.927Z,14.60
2023-04-30T08:53:28.107Z,14.70
2023-04-30T08:55:02.322Z,14.70
2023-04-30T08:56:35.172Z,14.80
2023-04-30T08:58:08.223Z,14.70
2023-04-30T08:59:42.321Z,14.60
2023-04-30T09:01:15.578Z,14.60
2023-04-30T09:02:49.196Z,14.70
2023-04-30T09:04:22.211Z,14.80
2023-04-30T09:05:55.775Z,14.90
2023-04-30T09:07:29.079Z,15.00
2023-04-30T09:09:09.676Z,15.10
2023-04-30T09:10:42.621Z,15.20
2023-04-30T09:12:18.609Z,15.20
2023-04-30T09:13:53.244Z,15.30
2023-04-30T09:15:27.466Z,15.40
2023-04-30T09:17:00.170Z,15.40
2023-04-30T09:18:39.923Z,15.40
2023-04-30T09:20:13.549Z,15.40
2023-04-30T09:21:46.941Z,15.30
2023-04-30T09:23:19.870Z,15.40
2023-04-30T09:24:53.360Z,15.40
2023-04-30T09:26:32.919Z,15.30
2023-04-30T09:28:11.556Z,15.20
2023-04-30T09:29:44.604Z,15.10
2023-04-30T09:31:21.611Z,15.10
2023-04-30T09:32:57.627Z,15.10
2023-04-30T09:34:34.811Z,15.20
2023-04-30T09:36:10.432Z,15.20
2023-04-30T09:37:43.190Z,15.20
2023-04-30T09:39:17.535Z,15.30
2023-04-30T09:40:50.410Z,15.30
2023-04-30T09:42:23.440Z,15.30
2023-04-30T09:43:57.715Z,15.30
2023-04-30T09:45:40.140Z,15.30
2023-04-30T09:47:16.385Z,15.30
2023-04-30T09:48:57.512Z,15.30
2023-04-30T09:50:41.386Z,15.30
2023-04-30T09:52:18.334Z,15.30
2023-04-30T09:53:51.871Z,15.30
2023-04-30T09:55:24.857Z,15.30
2023-04-30T09:56:58.989Z,15.20
2023-04-30T09:58:32.867Z,15.10
2023-04-30T10:00:08.831Z,15.10
2023-04-30T10:01:41.902Z,15.10
2023-04-30T10:03:16.252Z,15.30
2023-04-30T10:04:50.604Z,15.50
2023-04-30T10:06:24.048Z,15.60
2023-04-30T10:07:57.057Z,15.80
2023-04-30T10:09:30.759Z,15.70
2023-04-30T10:11:04.832Z,15.70
2023-04-30T10:12:40.968Z,15.70
2023-04-30T10:14:14.506Z,15.50
2023-04-30T10:15:50.365Z,15.50
2023-04-30T10:17:25.337Z,15.50
2023-04-30T10:19:01.085Z,15.40
2023-04-30T10:20:36.670Z,15.40
2023-04-30T10:22:10.388Z,15.40
2023-04-30T10:23:45.819Z,15.50
2023-04-30T10:25:19.383Z,15.50
2023-04-30T10:26:52.321Z,15.50
2023-04-30T10:28:25.234Z,15.60
2023-04-30T10:29:58.549Z,15.70
2023-04-30T10:31:31.621Z,15.70
2023-04-30T10:33:07.951Z,15.80
2023-04-30T10:34:47.408Z,15.80
2023-04-30T10:36:25.439Z,15.80
2023-04-30T10:37:59.038Z,15.80
2023-04-30T10:39:32.377Z,15.80
2023-04-30T10:41:07.232Z,15.60
2023-04-30T10:42:46.167Z,15.70
2023-04-30T10:44:23.019Z,15.80
2023-04-30T10:45:58.311Z,16.00
2023-04-30T10:47:31.358Z,16.10
2023-04-30T10:49:04.179Z,16.10
2023-04-30T10:50:45.008Z,16.00
2023-04-30T10:52:27.829Z,16.00
2023-04-30T10:54:01.177Z,15.90
2023-04-30T10:55:39.994Z,15.90
2023-04-30T10:57:14.185Z,15.90
2023-04-30T10:58:47.290Z,15.90
2023-04-30T11:00:21.322Z,15.90
2023-04-30T11:01:58.517Z,16.00
2023-04-30T11:03:32.592Z,16.20
2023-04-30T11:05:15.421Z,16.50
2023-04-30T11:06:54.993Z,16.60
2023-04-30T11:08:34.311Z,16.60
2023-04-30T11:10:09.376Z,16.70
2023-04-30T11:11:42.061Z,16.80
2023-04-30T11:13:14.992Z,16.90
2023-04-30T11:14:48.056Z,17.10
2023-04-30T11:16:21.084Z,17.20
2023-04-30T11:17:58.011Z,17.30
2023-04-30T11:19:30.923Z,17.60
2023-04-30T11:21:04.951Z,18.00
2023-04-30T11:22:39.668Z,18.10
2023-04-30T11:24:13.923Z,18.10
2023-04-30T11:25:47.380Z,18.00
2023-04-30T11:27:23.023Z,18.00
2023-04-30T11:28:56.572Z,17.90
2023-04-30T11:30:30.246Z,18.00
2023-04-30T11:32:05.065Z,18.00
2023-04-30T11:33:37.867Z,18.10
2023-04-30T11:35:11.096Z,18.20
2023-04-30T11:36:46.281Z,18.40
2023-04-30T11:38:22.666Z,18.50
2023-04-30T11:39:56.163Z,18.70
2023-04-30T11:41:29.267Z,18.80
2023-04-30T11:43:02.030Z,18.70
2023-04-30T11:44:34.911Z,18.50
2023-04-30T11:46:08.903Z,18.40
2023-04-30T11:47:45.694Z,18.30
2023-04-30T11:49:18.581Z,18.10
2023-04-30T11:50:52.402Z,17.90
2023-04-30T11:52:26.414Z,17.90
2023-04-30T11:54:00.691Z,18.00
2023-04-30T11:55:33.496Z,18.10
2023-04-30T11:57:06.374Z,18.20
2023-04-30T11:58:40.218Z,18.20
2023-04-30T12:00:14.385Z,18.10
2023-04-30T12:01:47.213Z,18.10
2023-04-30T12:03:20.206Z,18.30
2023-04-30T12:04:53.089Z,18.40
2023-04-30T12:06:26.490Z,18.40
2023-04-30T12:08:04.303Z,18.40
2023-04-30T12:09:51.908Z,18.20
2023-04-30T12:11:26.644Z,18.10
2023-04-30T12:12:59.386Z,17.90
2023-04-30T12:14:33.759Z,17.80
2023-04-30T12:16:06.877Z,17.70
2023-04-30T12:17:39.736Z,17.80
2023-04-30T12:19:12.751Z,18.00
2023-04-30T12:20:45.586Z,18.20
2023-04-30T12:22:18.339Z,18.30
2023-04-30T12:23:51.236Z,18.50
2023-04-30T12:25:24.166Z,18.80
2023-04-30T12:27:00.726Z,18.90
2023-04-30T12:28:35.189Z,18.90
2023-04-30T12:30:09.550Z,19.00
2023-04-30T12:31:42.353Z,19.20
2023-04-30T12:33:15.183Z,19.20
2023-04-30T12:34:48.664Z,19.10
2023-04-30T12:36:21.479Z,19.00
2023-04-30T12:37:55.847Z,18.70
2023-04-30T12:39:34.336Z,18.50
2023-04-30T12:41:07.059Z,18.20
2023-04-30T12:42:42.480Z,18.20
2023-04-30T12:44:16.115Z,18.40
2023-04-30T12:45:51.556Z,18.60
2023-04-30T12:47:25.888Z,18.90
2023-04-30T12:48:59.960Z,19.20
2023-04-30T12:50:32.725Z,19.60
2023-04-30T12:52:07.774Z,19.60
2023-04-30T12:53:45.861Z,19.90
2023-04-30T12:55:19.173Z,20.20
2023-04-30T12:57:02.281Z,20.40
2023-04-30T12:58:38.245Z,20.60
2023-04-30T13:00:12.376Z,20.50
2023-04-30T13:01:46.199Z,20.30
2023-04-30T13:03:19.920Z,19.80
2023-04-30T13:04:53.401Z,19.40
2023-04-30T13:06:27.508Z,19.00
2023-04-30T13:08:03.504Z,18.70
2023-04-30T13:09:36.886Z,18.40
2023-04-30T13:11:11.310Z,18.10
2023-04-30T13:12:44.301Z,18.00
2023-04-30T13:14:18.765Z,17.80
2023-04-30T13:15:51.562Z,17.80
2023-04-30T13:17:24.493Z,17.80
2023-04-30T13:18:57.411Z,17.80
2023-04-30T13:20:30.323Z,18.00
2023-04-30T13:22:03.128Z,18.10
2023-04-30T13:23:44.839Z,18.10
2023-04-30T13:25:25.228Z,18.10
2023-04-30T13:26:59.264Z,18.10
2023-04-30T13:28:32.317Z,18.20
2023-04-30T13:30:07.171Z,18.30
2023-04-30T13:31:39.930Z,18.30
2023-04-30T13:33:12.991Z,18.30
2023-04-30T13:34:45.955Z,18.40
2023-04-30T13:36:18.713Z,18.50
2023-04-30T13:37:52.601Z,18.50
2023-04-30T13:39:25.375Z,18.50
2023-04-30T13:40:58.147Z,18.50
2023-04-30T13:42:31.067Z,18.30
2023-04-30T13:44:04.019Z,18.20
2023-04-30T13:45:38.195Z,18.00
2023-04-30T13:47:11.588Z,17.90
2023-04-30T13:48:48.063Z,17.90
2023-04-30T13:50:20.934Z,17.90
2023-04-30T13:51:53.624Z,18.00
2023-04-30T13:53:26.379Z,18.10
2023-04-30T13:54:59.374Z,18.30
2023-04-30T13:56:32.163Z,18.40
2023-04-30T13:58:04.903Z,18.40
2023-04-30T13:59:38.600Z,18.50
2023-04-30T14:01:13.857Z,18.60
2023-04-30T14:02:46.854Z,18.60
2023-04-30T14:04:19.919Z,18.70
2023-04-30T14:05:52.905Z,18.90
2023-04-30T14:07:25.699Z,19.10
2023-04-30T14:08:58.438Z,19.30
2023-04-30T14:10:31.156Z,19.50
2023-04-30T14:12:03.898Z,19.50
2023-04-30T14:13:36.699Z,19.50
2023-04-30T14:15:10.056Z,19.40
2023-04-30T14:16:44.478Z,19.20
2023-04-30T14:18:18.549Z,19.00
2023-04-30T14:19:51.793Z,18.90
2023-04-30T14:21:24.523Z,18.70
2023-04-30T14:22:57.328Z,18.60
2023-04-30T14:24:30.878Z,18.70
2023-04-30T14:26:03.614Z,18.80
2023-04-30T14:27:36.437Z,18.80
2023-04-30T14:29:09.229Z,18.70
2023-04-30T14:30:42.196Z,18.80
2023-04-30T14:32:16.429Z,18.90
2023-04-30T14:33:49.201Z,19.00
2023-04-30T14:35:21.954Z,19.10
2023-04-30T14:36:54.687Z,19.10
2023-04-30T14:38:27.447Z,19.10
2023-04-30T14:40:01.928Z,19.20
2023-04-30T14:41:35.288Z,19.10
2023-04-30T14:43:08.045Z,19.20
2023-04-30T14:44:41.174Z,19.10
2023-04-30T14:46:13.939Z,19.10
2023-04-30T14:47:48.144Z,19.00
2023-04-30T14:49:21.022Z,18.90
2023-04-30T14:50:53.698Z,18.90
2023-04-30T14:52:26.453Z,19.00
2023-04-30T14:53:59.222Z,19.10
2023-04-30T14:55:32.062Z,19.10
2023-04-30T14:57:05.511Z,19.20
2023-04-30T14:58:38.198Z,19.50
2023-04-30T15:00:12.104Z,19.60
2023-04-30T15:01:44.898Z,19.70
2023-04-30T15:03:19.172Z,19.70
2023-04-30T15:04:52.331Z,19.60
2023-04-30T15:06:25.104Z,19.60
2023-04-30T15:07:57.872Z,19.60
2023-04-30T15:09:30.659Z,19.60
2023-04-30T15:11:03.797Z,19.50
2023-04-30T15:12:36.608Z,19.60
2023-04-30T15:14:09.411Z,19.60
2023-04-30T15:15:42.985Z,19.70
2023-04-30T15:17:15.973Z,19.80
2023-04-30T15:18:50.045Z,19.90
2023-04-30T15:20:22.969Z,20.00
2023-04-30T15:21:55.849Z,20.10
2023-04-30T15:23:28.672Z,20.20
2023-04-30T15:25:01.431Z,20.30
2023-04-30T15:26:34.153Z,20.40
2023-04-30T15:28:07.049Z,20.50
2023-04-30T15:29:40.296Z,20.60
2023-04-30T15:31:13.156Z,20.90
2023-04-30T15:32:47.093Z,21.10
2023-04-30T15:34:22.828Z,21.10
2023-04-30T15:35:55.748Z,21.20
2023-04-30T15:37:28.627Z,21.00
2023-04-30T15:39:01.401Z,20.70
2023-04-30T15:40:33.153Z,20.30
2023-04-30T15:42:05.904Z,20.00
2023-04-30T15:43:38.654Z,19.70
2023-04-30T15:45:10.623Z,19.40
2023-04-30T15:46:43.540Z,19.20
2023-04-30T15:48:16.405Z,19.00
2023-04-30T15:49:50.499Z,18.80
2023-04-30T15:51:23.236Z,18.70
2023-04-30T15:52:56.045Z,18.60
2023-04-30T15:54:28.814Z,18.50
2023-04-30T15:56:01.623Z,18.50
2023-04-30T15:57:34.372Z,18.50
2023-04-30T15:59:07.196Z,18.50
2023-04-30T16:00:40.118Z,18.70
2023-04-30T16:02:12.884Z,18.80
2023-04-30T16:03:45.989Z,19.00
2023-04-30T16:05:20.222Z,19.20
2023-04-30T16:06:53.482Z,19.30
2023-04-30T16:08:26.423Z,19.40
2023-04-30T16:09:59.275Z,19.60
2023-04-30T16:11:32.087Z,19.90
2023-04-30T16:13:04.868Z,20.20
2023-04-30T16:14:37.648Z,20.40
2023-04-30T16:16:11.076Z,20.60
2023-04-30T16:17:44.141Z,20.70
2023-04-30T16:19:17.198Z,20.60
2023-04-30T16:20:51.862Z,20.70
2023-04-30T16:22:24.688Z,20.80
2023-04-30T16:23:57.449Z,20.90
2023-04-30T16:25:30.440Z,20.90
2023-04-30T16:27:03.453Z,20.70
2023-04-30T16:28:36.243Z,20.40
2023-04-30T16:30:09.565Z,20.10
2023-04-30T16:31:42.669Z,19.70
2023-04-30T16:33:16.400Z,19.40
2023-04-30T16:34:49.177Z,19.30
2023-04-30T16:36:23.267Z,19.20
2023-04-30T16:37:56.051Z,19.00
2023-04-30T16:39:28.788Z,18.90
2023-04-30T16:41:01.538Z,18.80
2023-04-30T16:42:34.925Z,18.70
2023-04-30T16:44:08.120Z,18.60
2023-04-30T16:45:40.884Z,18.50
2023-04-30T16:47:13.684Z,18.50
2023-04-30T16:48:46.453Z,18.60
2023-04-30T16:50:19.281Z,18.70
2023-04-30T16:51:53.399Z,18.80
2023-04-30T16:53:26.205Z,19.00
2023-04-30T16:54:58.861Z,19.10
2023-04-30T16:56:31.585Z,19.20
2023-04-30T16:58:04.305Z,19.20
2023-04-30T16:59:37.545Z,19.20
2023-04-30T17:01:10.382Z,19.20
2023-04-30T17:02:45.615Z,19.10
2023-04-30T17:04:18.404Z,19.10
2023-04-30T17:05:52.633Z,19.10
2023-04-30T17:07:27.071Z,19.00
2023-04-30T17:08:59.896Z,18.90
2023-04-30T17:10:32.656Z,18.80
2023-04-30T17:12:05.428Z,18.60
2023-04-30T17:13:38.797Z,18.60
2023-04-30T17:15:11.890Z,18.50
2023-04-30T17:16:44.997Z,18.30
2023-04-30T17:18:18.284Z,18.20
2023-04-30T17:19:51.108Z,18.00
2023-04-30T17:21:23.870Z,18.00
2023-04-30T17:22:58.167Z,17.90
2023-04-30T17:24:30.903Z,17.80
2023-04-30T17:26:04.120Z,17.80
2023-04-30T17:27:37.555Z,17.70
2023-04-30T17:29:10.324Z,17.60
2023-04-30T17:30:44.500Z,17.50
2023-04-30T17:32:17.668Z,17.50
2023-04-30T17:33:50.496Z,17.40
2023-04-30T17:35:23.361Z,17.30
2023-04-30T17:36:56.118Z,17.30
2023-04-30T17:38:30.191Z,17.20
2023-04-30T17:40:03.274Z,17.20
2023-04-30T17:41:36.037Z,17.10
2023-04-30T17:43:08.779Z,17.10
2023-04-30T17:44:41.622Z,17.00
2023-04-30T17:46:14.563Z,16.90
2023-04-30T17:47:47.440Z,16.90
2023-04-30T17:49:20.284Z,16.80
2023-04-30T17:50:53.066Z,16.80
2023-04-30T17:52:26.186Z,16.70
2023-04-30T17:54:00.305Z,16.70
2023-04-30T17:55:33.106Z,16.60
2023-04-30T17:57:06.312Z,16.50
2023-04-30T17:58:40.124Z,16.50
2023-04-30T18:00:14.007Z,16.40
2023-04-30T18:01:46.969Z,16.40
2023-04-30T18:03:19.858Z,16.40
2023-04-30T18:04:52.833Z,16.30
2023-04-30T18:06:26.023Z,16.30
2023-04-30T18:07:58.831Z,16.20
2023-04-30T18:09:32.909Z,16.10
2023-04-30T18:11:05.683Z,16.10
2023-04-30T18:12:38.407Z,16.10
2023-04-30T18:14:11.439Z,16.00
2023-04-30T18:15:44.261Z,15.90
2023-04-30T18:17:17.004Z,15.80
2023-04-30T18:18:49.714Z,15.70
2023-04-30T18:20:22.706Z,15.60
2023-04-30T18:21:56.735Z,15.60
2023-04-30T18:23:29.630Z,15.50
2023-04-30T18:25:03.949Z,15.40
2023-04-30T18:26:36.687Z,15.40
2023-04-30T18:28:09.597Z,15.40
2023-04-30T18:29:43.029Z,15.30
2023-04-30T18:31:15.851Z,15.20
2023-04-30T18:32:48.734Z,15.20
2023-04-30T18:34:21.501Z,15.20
2023-04-30T18:35:57.031Z,15.10
2023-04-30T18:37:30.055Z,15.00
2023-04-30T18:39:03.225Z,14.90
2023-04-30T18:40:37.332Z,14.80
2023-04-30T18:42:10.658Z,14.70
2023-04-30T18:43:43.572Z,14.70
2023-04-30T18:45:18.120Z,14.70
2023-04-30T18:46:50.897Z,14.60
2023-04-30T18:48:23.902Z,14.50
2023-04-30T18:49:56.933Z,14.50
2023-04-30T18:51:29.964Z,14.50
2023-04-30T18:53:02.781Z,14.50
2023-04-30T18:54:36.156Z,14.50
2023-04-30T18:56:10.272Z,14.50
2023-04-30T18:57:43.350Z,14.50
2023-04-30T18:59:16.858Z,14.40
2023-04-30T19:00:50.288Z,14.40
2023-04-30T19:02:23.290Z,14.30
2023-04-30T19:03:56.128Z,14.30
2023-04-30T19:05:28.989Z,14.20
2023-04-30T19:07:01.767Z,14.10
2023-04-30T19:08:34.727Z,14.10
2023-04-30T19:10:07.908Z,14.00
2023-04-30T19:11:42.084Z,14.00
2023-04-30T19:13:14.847Z,13.90
2023-04-30T19:14:47.557Z,13.90
2023-04-30T19:16:20.368Z,13.80
2023-04-30T19:17:53.175Z,13.80
2023-04-30T19:19:25.919Z,13.80
2023-04-30T19:21:00.111Z,13.80
2023-04-30T19:22:32.967Z,13.70
2023-04-30T19:24:05.878Z,13.70
2023-04-30T19:25:39.038Z,13.60
2023-04-30T19:27:13.124Z,13.50
2023-04-30T19:28:45.888Z,13.50
2023-04-30T19:30:18.657Z,13.50
2023-04-30T19:31:51.492Z,13.40
2023-04-30T19:33:24.907Z,13.40
2023-04-30T19:34:58.905Z,13.30
2023-04-30T19:36:32.105Z,13.30
2023-04-30T19:38:04.848Z,13.30
2023-04-30T19:39:38.023Z,13.30
2023-04-30T19:41:11.293Z,13.20
2023-04-30T19:42:47.540Z,13.20
2023-04-30T19:44:20.351Z,13.10
2023-04-30T19:45:53.657Z,13.10
2023-04-30T19:47:26.795Z,13.00
2023-04-30T19:48:59.594Z,13.00
2023-04-30T19:50:32.343Z,12.90
2023-04-30T19:52:05.461Z,12.80
2023-04-30T19:53:38.232Z,12.80
2023-04-30T19:55:11.041Z,12.80
2023-04-30T19:56:43.833Z,12.70
2023-04-30T19:58:17.948Z,12.70
2023-04-30T19:59:50.848Z,12.70
2023-04-30T20:01:23.658Z,12.70
2023-04-30T20:02:56.475Z,12.70
2023-04-30T20:04:29.358Z,12.60
2023-04-30T20:06:02.710Z,12.60